Time;durP1;ratioP1;P1;durP2;ratioP2;P2;SDS_P1;SDS_P2;PMS_P1;PMS_P2;Temp;Humidity;BMP_temperature;BMP_pressure;BME280_temperature;BME280_humidity;BME280_pressure;Samples;Min_cycle;Max_cycle;Signal;HPM_P1;HPM_P2
2021/09/21 00:04:44;;;;;;;6.60;4.43;;;13.80;1.00;;;;;;5057572;28;20621;-77
2021/09/21 00:07:10;;;;;;;5.50;4.10;;;13.60;2.40;;;;;;5089176;22;20276;-77
2021/09/21 00:09:35;;;;;;;8.07;4.50;;;13.50;1.00;;;;;;5097457;28;20171;-77
2021/09/21 00:12:02;;;;;;;6.60;4.23;;;13.50;2.60;;;;;;5097340;28;20242;-78
2021/09/21 00:14:28;;;;;;;5.47;3.83;;;13.50;1.00;;;;;;5079243;28;20176;-78
2021/09/21 00:16:53;;;;;;;6.53;4.57;;;13.50;1.00;;;;;;5096887;28;20186;-76
2021/09/21 00:19:19;;;;;;;5.30;4.10;;;13.50;1.00;;;;;;5097540;28;20621;-77
2021/09/21 00:21:45;;;;;;;6.37;4.90;;;13.50;1.00;;;;;;5096847;28;20164;-77
2021/09/21 00:24:10;;;;;;;6.67;4.67;;;13.30;1.00;;;;;;5097610;28;20164;-78
2021/09/21 00:26:36;;;;;;;6.43;4.37;;;13.30;1.00;;;;;;5097327;28;20175;-78
2021/09/21 00:29:02;;;;;;;5.80;4.53;;;13.30;1.00;;;;;;5097112;28;20172;-78
2021/09/21 00:31:37;;;;;;;5.20;4.00;;;13.30;1.00;;;;;;5096766;28;20552;-76
2021/09/21 00:34:11;;;;;;;6.80;4.00;;;13.20;1.00;;;;;;5097435;28;20178;-78
2021/09/21 00:36:39;;;;;;;5.53;4.13;;;13.20;1.00;;;;;;5097277;28;20508;-78
2021/09/21 00:39:07;;;;;;;6.93;4.70;;;13.20;1.00;;;;;;5097514;28;20695;-75
2021/09/21 00:41:36;;;;;;;5.83;4.80;;;13.20;1.00;;;;;;5096364;28;20163;-79
2021/09/21 00:44:02;;;;;;;6.80;4.37;;;13.20;1.00;;;;;;5097514;28;20595;-77
2021/09/21 00:46:27;;;;;;;5.73;4.67;;;13.10;1.00;;;;;;5097140;28;20179;-77
2021/09/21 00:48:53;;;;;;;6.17;4.27;;;13.20;1.00;;;;;;5096468;28;20184;-77
2021/09/21 00:51:21;;;;;;;7.17;4.23;;;13.20;1.00;;;;;;5078672;28;20275;-78
2021/09/21 00:53:47;;;;;;;5.50;4.20;;;13.20;1.00;;;;;;5097037;28;20660;-77
2021/09/21 00:56:14;;;;;;;5.53;3.77;;;13.10;2.00;;;;;;5079955;28;20179;-77
2021/09/21 00:58:40;;;;;;;5.60;4.13;;;13.10;1.00;;;;;;5118141;28;20167;-76
2021/09/21 01:01:05;;;;;;;4.83;4.33;;;13.00;1.50;;;;;;5119157;28;20193;-76
2021/09/21 01:03:31;;;;;;;6.63;4.50;;;12.90;5.20;;;;;;5109366;28;20190;-78
2021/09/21 01:05:57;;;;;;;8.23;4.40;;;13.10;9.30;;;;;;5116919;28;20191;-75
2021/09/21 01:08:29;;;;;;;4.63;4.20;;;13.00;2.10;;;;;;5119091;28;20164;-76
2021/09/21 01:10:55;;;;;;;6.87;4.47;;;13.00;1.00;;;;;;5102631;28;20168;-76
2021/09/21 01:13:21;;;;;;;6.93;4.50;;;13.00;1.00;;;;;;5116201;28;20193;-77
2021/09/21 01:15:47;;;;;;;6.60;4.30;;;13.10;1.00;;;;;;5118501;28;20151;-75
2021/09/21 01:18:13;;;;;;;5.27;4.37;;;12.90;1.00;;;;;;5119594;28;20167;-77
2021/09/21 01:20:39;;;;;;;5.97;4.37;;;12.90;1.00;;;;;;5119467;28;20213;-77
2021/09/21 01:23:05;;;;;;;5.07;4.23;;;12.90;1.00;;;;;;5112836;28;20226;-77
2021/09/21 01:25:33;;;;;;;5.67;4.10;;;12.80;1.00;;;;;;5096241;28;20193;-77
2021/09/21 01:27:59;;;;;;;5.60;4.43;;;12.70;3.30;;;;;;5096881;28;20238;-75
2021/09/21 01:30:26;;;;;;;6.70;4.43;;;12.70;5.00;;;;;;5096266;28;20164;-76
2021/09/21 01:32:52;;;;;;;6.23;4.40;;;12.70;9.60;;;;;;5096296;28;20325;-76
2021/09/21 01:35:17;;;;;;;6.87;4.47;;;12.70;8.00;;;;;;5096029;28;20180;-78
2021/09/21 01:37:51;;;;;;;6.20;4.47;;;12.60;13.20;;;;;;5096091;28;20171;-77
2021/09/21 01:40:17;;;;;;;6.20;4.50;;;12.60;16.60;;;;;;5095761;28;20249;-77
2021/09/21 01:42:49;;;;;;;7.93;4.90;;;12.60;11.90;;;;;;5095743;28;20337;-78
2021/09/21 01:45:16;;;;;;;8.53;4.83;;;12.60;11.20;;;;;;5095756;28;20168;-78
2021/09/21 01:47:44;;;;;;;7.27;4.93;;;12.60;12.90;;;;;;5095480;28;20250;-78
2021/09/21 01:50:20;;;;;;;7.13;5.07;;;12.60;13.20;;;;;;5095847;28;20168;-78
2021/09/21 02:00:44;;;;;;;6.80;5.17;;;12.40;21.20;;;;;;5095988;28;20206;-77
2021/09/21 02:03:09;;;;;;;7.30;5.33;;;12.40;25.30;;;;;;5095205;28;20171;-78
2021/09/21 02:05:35;;;;;;;9.53;5.37;;;12.30;26.20;;;;;;5095391;28;20214;-77
2021/09/21 02:08:01;;;;;;;8.63;5.93;;;12.30;28.00;;;;;;5095211;28;20195;-78
2021/09/21 02:10:26;;;;;;;8.00;6.50;;;12.20;29.50;;;;;;5094886;28;20312;-77
2021/09/21 02:12:52;;;;;;;8.37;6.77;;;12.10;32.20;;;;;;5094738;28;20662;-78
2021/09/21 02:15:20;;;;;;;9.83;6.97;;;12.00;38.50;;;;;;5076888;28;20247;-77
2021/09/21 02:17:46;;;;;;;7.77;6.60;;;11.90;40.40;;;;;;5094855;28;20175;-76
2021/09/21 02:20:12;;;;;;;10.27;6.27;;;11.90;42.30;;;;;;5094880;28;20676;-77
2021/09/21 02:22:38;;;;;;;7.70;6.30;;;11.80;45.30;;;;;;5094225;28;20680;-75
2021/09/21 02:25:04;;;;;;;9.20;6.93;;;11.70;48.10;;;;;;5076137;28;20176;-77
2021/09/21 02:27:30;;;;;;;9.70;6.73;;;11.80;47.80;;;;;;5094794;28;20250;-78
2021/09/21 02:29:56;;;;;;;8.37;7.33;;;11.70;47.70;;;;;;5095305;28;20206;-76
2021/09/21 02:32:21;;;;;;;7.83;6.80;;;11.80;50.50;;;;;;5085886;28;20688;-76
2021/09/21 02:34:47;;;;;;;9.40;6.93;;;11.80;48.30;;;;;;5106009;28;20187;-78
2021/09/21 02:37:14;;;;;;;8.13;6.53;;;11.80;49.30;;;;;;5094717;28;20217;-77
2021/09/21 02:39:40;;;;;;;7.77;6.50;;;11.70;50.30;;;;;;5094126;28;20176;-77
2021/09/21 02:42:07;;;;;;;10.27;6.13;;;11.80;52.10;;;;;;5094773;28;20171;-77
2021/09/21 02:44:34;;;;;;;8.00;6.50;;;11.70;50.00;;;;;;5094437;28;20257;-76
2021/09/21 02:47:01;;;;;;;11.53;7.43;;;11.70;49.30;;;;;;5076212;28;20182;-76
2021/09/21 02:49:27;;;;;;;8.27;6.90;;;11.70;50.70;;;;;;5093986;28;20189;-77
2021/09/21 02:51:52;;;;;;;9.27;6.87;;;11.80;49.50;;;;;;5094005;28;20670;-78
2021/09/21 02:54:18;;;;;;;9.97;6.73;;;11.80;50.30;;;;;;5094124;28;20635;-78
2021/09/21 02:56:44;;;;;;;9.80;6.93;;;11.90;52.10;;;;;;5094308;28;20525;-78
2021/09/21 02:59:09;;;;;;;9.80;7.13;;;11.80;50.00;;;;;;5094234;28;20171;-77
2021/09/21 03:01:35;;;;;;;9.67;7.03;;;11.70;52.10;;;;;;5094187;28;20176;-77
2021/09/21 03:04:06;;;;;;;9.20;6.90;;;11.70;51.10;;;;;;5076009;28;20175;-79
2021/09/21 03:06:35;;;;;;;12.83;6.90;;;11.60;55.10;;;;;;5093254;28;20210;-77
2021/09/21 03:11:41;;;;;;;9.30;6.73;;;11.70;55.30;;;;;;5093762;28;20689;-78
2021/09/21 03:19:25;;;;;;;11.43;6.53;;;11.50;56.80;;;;;;5109767;28;20214;-76
2021/09/21 03:21:52;;;;;;;9.17;7.40;;;11.60;56.30;;;;;;5095127;28;20172;-77
2021/09/21 03:24:18;;;;;;;9.77;6.90;;;11.70;53.80;;;;;;5110783;28;20225;-79
2021/09/21 03:26:44;;;;;;;9.07;6.87;;;11.70;55.60;;;;;;5076079;28;20665;-77
2021/09/21 03:29:13;;;;;;;8.93;6.57;;;11.70;54.60;;;;;;5094190;28;20212;-78
2021/09/21 03:31:39;;;;;;;9.43;7.30;;;11.70;56.30;;;;;;5093687;28;20183;-79
2021/09/21 03:34:05;;;;;;;8.27;7.17;;;11.70;55.40;;;;;;5093577;28;20172;-77
2021/09/21 03:36:31;;;;;;;8.73;7.13;;;11.70;54.20;;;;;;5093191;28;20179;-78
2021/09/21 03:38:57;;;;;;;12.07;7.63;;;11.70;52.00;;;;;;5092955;28;20175;-78
2021/09/21 03:41:22;;;;;;;9.53;7.47;;;11.80;52.30;;;;;;5093405;28;20213;-77
2021/09/21 03:43:49;;;;;;;9.43;7.40;;;11.70;55.10;;;;;;5093448;28;20171;-79
2021/09/21 03:46:16;;;;;;;8.87;7.03;;;11.80;54.30;;;;;;5093344;28;20240;-78
2021/09/21 03:48:42;;;;;;;9.23;7.37;;;11.70;54.70;;;;;;5093646;28;20167;-76
2021/09/21 03:51:08;;;;;;;11.53;7.07;;;11.70;53.40;;;;;;5108593;28;20186;-78
2021/09/21 03:53:33;;;;;;;11.70;8.00;;;11.60;57.20;;;;;;5105126;28;20214;-78
2021/09/21 03:56:00;;;;;;;9.77;7.13;;;11.60;58.00;;;;;;5093384;28;20547;-76
2021/09/21 03:58:26;;;;;;;9.13;7.10;;;11.60;57.60;;;;;;5093219;28;20167;-76
2021/09/21 04:00:53;;;;;;;8.90;7.53;;;11.60;60.80;;;;;;5093726;28;20162;-77
2021/09/21 04:03:18;;;;;;;9.07;7.53;;;11.50;61.00;;;;;;5092653;28;20184;-77
2021/09/21 04:05:44;;;;;;;10.23;7.43;;;11.40;62.20;;;;;;5092602;28;20163;-78
2021/09/21 04:08:09;;;;;;;10.07;7.87;;;11.50;62.80;;;;;;5075519;28;20262;-77
2021/09/21 04:10:35;;;;;;;8.03;7.23;;;11.50;61.00;;;;;;5102025;28;20168;-76
2021/09/21 04:13:01;;;;;;;9.33;7.50;;;11.50;61.70;;;;;;5107879;28;20211;-76
2021/09/21 04:15:26;;;;;;;9.27;7.53;;;11.50;62.00;;;;;;5095953;28;20517;-78
2021/09/21 04:17:52;;;;;;;12.90;7.60;;;11.50;63.00;;;;;;5093826;28;20259;-77
2021/09/21 04:20:19;;;;;;;8.90;6.73;;;11.60;61.80;;;;;;5092569;28;20256;-76
2021/09/21 04:22:45;;;;;;;10.70;7.17;;;11.50;61.10;;;;;;5093203;28;20175;-76
2021/09/21 04:25:11;;;;;;;10.40;7.37;;;11.40;62.20;;;;;;5092934;28;20175;-77
2021/09/21 04:27:37;;;;;;;10.53;7.57;;;11.40;63.10;;;;;;5092941;28;20627;-77
2021/09/21 04:30:04;;;;;;;14.17;7.93;;;11.40;65.10;;;;;;5093123;28;20174;-78
2021/09/21 04:32:29;;;;;;;10.87;8.13;;;11.40;64.90;;;;;;5075487;28;20215;-80
2021/09/21 04:34:55;;;;;;;10.93;7.70;;;11.40;67.00;;;;;;5093060;28;20528;-77
2021/09/21 04:37:22;;;;;;;10.33;8.30;;;11.60;66.30;;;;;;5093302;28;20172;-76
2021/09/21 04:39:47;;;;;;;11.77;7.80;;;11.40;68.20;;;;;;5093033;28;20159;-77
2021/09/21 04:42:13;;;;;;;13.53;8.37;;;11.50;66.40;;;;;;5093226;28;20392;-77
2021/09/21 04:44:39;;;;;;;9.23;7.87;;;11.40;66.20;;;;;;5092853;28;20225;-77
2021/09/21 04:47:05;;;;;;;11.83;8.60;;;11.40;68.50;;;;;;5094004;28;20172;-77
2021/09/21 04:49:31;;;;;;;11.00;8.27;;;11.40;69.20;;;;;;5094974;28;20609;-76
2021/09/21 04:51:57;;;;;;;9.70;8.00;;;11.40;68.10;;;;;;5096619;28;20199;-77
2021/09/21 04:54:23;;;;;;;11.97;7.87;;;11.30;69.70;;;;;;5078363;28;20185;-78
2021/09/21 04:56:49;;;;;;;16.17;8.73;;;11.30;70.70;;;;;;5096245;28;20259;-77
2021/09/21 04:59:15;;;;;;;11.57;7.93;;;11.30;72.00;;;;;;5096824;28;20168;-77
2021/09/21 05:01:40;;;;;;;13.07;9.67;;;11.50;69.30;;;;;;5096851;28;20278;-77
2021/09/21 05:04:06;;;;;;;13.93;8.30;;;11.30;68.70;;;;;;5096679;28;20252;-77
2021/09/21 05:06:31;;;;;;;13.90;8.57;;;11.30;69.60;;;;;;5078757;28;20207;-77
2021/09/21 05:08:57;;;;;;;11.33;8.13;;;11.30;69.80;;;;;;5077977;28;20187;-77
2021/09/21 05:11:23;;;;;;;11.30;8.40;;;11.30;70.70;;;;;;5077262;28;20175;-78
2021/09/21 05:13:49;;;;;;;11.43;8.37;;;11.20;71.20;;;;;;5078242;28;20222;-77
2021/09/21 05:16:14;;;;;;;9.73;8.63;;;11.20;72.30;;;;;;5096374;28;20175;-78
2021/09/21 05:18:40;;;;;;;11.10;8.83;;;11.30;73.40;;;;;;5096440;28;20523;-79
2021/09/21 05:21:06;;;;;;;10.47;8.03;;;11.30;72.50;;;;;;5096739;28;20221;-77
2021/09/21 05:23:31;;;;;;;11.97;8.77;;;11.30;72.20;;;;;;5097052;28;20201;-80
2021/09/21 05:25:57;;;;;;;12.60;9.40;;;11.20;71.50;;;;;;5096049;28;20168;-80
2021/09/21 05:28:23;;;;;;;15.23;9.63;;;11.30;72.20;;;;;;5095957;28;20176;-78
2021/09/21 05:30:48;;;;;;;12.33;8.53;;;11.30;72.60;;;;;;5096576;28;20641;-78
2021/09/21 05:33:15;;;;;;;14.07;8.17;;;11.20;72.40;;;;;;5081485;28;20214;-78
2021/09/21 05:35:40;;;;;;;14.07;8.73;;;11.10;74.60;;;;;;5100123;28;20167;-79
2021/09/21 05:38:06;;;;;;;18.60;11.57;;;11.30;70.60;;;;;;5098699;28;20179;-78
2021/09/21 05:40:32;;;;;;;12.97;8.90;;;11.50;74.00;;;;;;5097444;28;20179;-79
2021/09/21 05:42:59;;;;;;;12.17;8.63;;;11.40;70.10;;;;;;5098621;28;20168;-79
2021/09/21 05:45:25;;;;;;;15.27;8.73;;;11.30;69.80;;;;;;5096219;28;20611;-80
2021/09/21 05:47:51;;;;;;;16.33;9.20;;;11.40;74.20;;;;;;5095117;28;20205;-77
2021/09/21 05:50:16;;;;;;;17.80;9.57;;;11.10;76.40;;;;;;5096568;28;20172;-77
2021/09/21 05:52:45;;;;;;;14.23;9.07;;;11.20;75.30;;;;;;5096606;28;20253;-79
2021/09/21 05:55:10;;;;;;;13.27;9.00;;;11.30;75.00;;;;;;5061576;28;20213;-79
2021/09/21 05:57:36;;;;;;;17.43;9.63;;;11.30;75.40;;;;;;5095660;28;20324;-78
2021/09/21 06:00:04;;;;;;;13.40;8.90;;;11.40;73.20;;;;;;5095301;28;20168;-78
2021/09/21 06:02:30;;;;;;;18.90;9.03;;;11.40;70.80;;;;;;5095479;28;20173;-80
2021/09/21 06:04:57;;;;;;;17.73;9.27;;;11.40;71.50;;;;;;5095365;28;20168;-82
2021/09/21 06:07:23;;;;;;;14.33;9.40;;;11.30;73.40;;;;;;5095699;28;20223;-80
2021/09/21 06:09:49;;;;;;;17.53;9.87;;;11.40;72.80;;;;;;5095885;28;20168;-80
2021/09/21 06:12:15;;;;;;;18.50;10.53;;;11.40;71.80;;;;;;5095889;28;20259;-83
2021/09/21 06:14:41;;;;;;;15.37;9.23;;;11.50;72.10;;;;;;5095880;28;20167;-79
2021/09/21 06:17:07;;;;;;;13.80;10.03;;;11.50;71.80;;;;;;5078194;28;20673;-79
2021/09/21 06:19:33;;;;;;;19.13;9.80;;;11.50;71.80;;;;;;5091668;28;20657;-78
2021/09/21 06:21:59;;;;;;;21.07;10.27;;;11.50;69.60;;;;;;5093801;28;20176;-81
2021/09/21 06:24:25;;;;;;;12.67;9.53;;;11.60;69.60;;;;;;5093621;28;20218;-76
2021/09/21 06:26:50;;;;;;;17.60;11.20;;;11.60;68.40;;;;;;5097933;28;20242;-77
2021/09/21 06:29:16;;;;;;;14.50;9.63;;;11.60;67.60;;;;;;5091675;28;20657;-78
2021/09/21 06:31:42;;;;;;;15.20;9.03;;;11.60;66.20;;;;;;5093072;28;20179;-79
2021/09/21 06:34:08;;;;;;;16.00;9.37;;;11.60;66.80;;;;;;5091756;28;20530;-77
2021/09/21 06:36:34;;;;;;;15.87;9.43;;;11.60;69.80;;;;;;5094452;28;20163;-76
2021/09/21 06:39:01;;;;;;;20.57;9.53;;;11.60;65.70;;;;;;5096852;28;20168;-79
2021/09/21 06:41:26;;;;;;;15.47;10.17;;;11.60;69.80;;;;;;5100353;28;20228;-78
2021/09/21 06:43:52;;;;;;;17.93;10.13;;;11.60;70.60;;;;;;5097960;28;20577;-77
2021/09/21 06:46:18;;;;;;;14.60;9.60;;;11.70;68.10;;;;;;5097471;28;20569;-76
2021/09/21 06:48:43;;;;;;;12.67;9.20;;;11.80;64.30;;;;;;5094617;28;20174;-79
2021/09/21 06:51:10;;;;;;;14.13;8.80;;;11.60;64.40;;;;;;5099373;28;20172;-79
2021/09/21 06:53:36;;;;;;;15.30;8.70;;;11.60;61.90;;;;;;5085621;28;20603;-76
2021/09/21 06:56:02;;;;;;;15.80;9.90;;;11.60;63.80;;;;;;5103812;28;20180;-76
2021/09/21 06:58:29;;;;;;;18.20;10.30;;;11.60;66.80;;;;;;5106874;28;20164;-74
2021/09/21 07:00:54;;;;;;;16.87;10.83;;;11.60;67.00;;;;;;5113365;28;20197;-75
2021/09/21 07:03:20;;;;;;;17.43;10.43;;;11.70;68.80;;;;;;5109107;28;20190;-76
2021/09/21 07:05:46;;;;;;;15.33;9.77;;;11.80;68.00;;;;;;5098043;28;20557;-78
2021/09/21 07:08:19;;;;;;;17.00;9.63;;;11.80;67.30;;;;;;5094706;28;20214;-79
2021/09/21 07:10:44;;;;;;;14.50;9.97;;;11.80;61.60;;;;;;5094741;28;20166;-79
2021/09/21 07:13:10;;;;;;;19.33;10.43;;;11.90;60.20;;;;;;5093661;28;20196;-80
2021/09/21 07:15:35;;;;;;;14.13;10.53;;;11.90;59.80;;;;;;5088926;28;20167;-77
2021/09/21 07:18:02;;;;;;;17.90;10.37;;;11.90;61.80;;;;;;5112624;28;20208;-78
2021/09/21 07:20:28;;;;;;;13.93;9.73;;;12.00;60.20;;;;;;5112502;28;20281;-78
2021/09/21 07:22:54;;;;;;;12.87;9.70;;;12.00;59.20;;;;;;5112547;28;20176;-79
2021/09/21 07:25:21;;;;;;;13.40;10.47;;;12.10;59.10;;;;;;5097484;28;20700;-77
2021/09/21 07:27:48;;;;;;;15.93;10.37;;;12.20;59.50;;;;;;5094485;28;20171;-80
2021/09/21 07:30:15;;;;;;;15.70;11.17;;;12.40;55.70;;;;;;5094884;28;20160;-78
2021/09/21 07:32:44;;;;;;;17.73;10.73;;;12.40;51.70;;;;;;5094547;28;20200;-80
2021/09/21 07:35:10;;;;;;;13.43;10.10;;;12.50;50.20;;;;;;5094870;28;20164;-77
2021/09/21 07:37:36;;;;;;;14.37;10.50;;;12.50;48.10;;;;;;5093873;28;20175;-78
2021/09/21 07:40:04;;;;;;;13.20;10.53;;;12.60;49.10;;;;;;5075735;28;20308;-78
2021/09/21 07:42:30;;;;;;;19.60;10.60;;;12.70;49.40;;;;;;5093096;28;20160;-80
2021/09/21 07:44:56;;;;;;;19.30;10.90;;;12.70;47.20;;;;;;5093031;28;20216;-79
2021/09/21 07:47:23;;;;;;;13.70;10.60;;;12.80;47.80;;;;;;5093588;28;20182;-78
2021/09/21 07:49:48;;;;;;;13.67;10.53;;;12.90;50.50;;;;;;5093913;28;20258;-78
2021/09/21 07:52:14;;;;;;;18.47;10.67;;;12.70;47.30;;;;;;5093638;28;20423;-80
2021/09/21 07:54:40;;;;;;;16.80;10.23;;;12.90;47.30;;;;;;5094510;28;20164;-77
2021/09/21 07:57:06;;;;;;;19.13;11.60;;;12.90;45.40;;;;;;5075460;28;20657;-78
2021/09/21 07:59:32;;;;;;;15.97;12.20;;;12.90;47.50;;;;;;5094670;28;20235;-78
2021/09/21 08:01:58;;;;;;;16.13;11.83;;;13.10;43.70;;;;;;5097106;28;20627;-78
2021/09/21 08:04:24;;;;;;;15.47;11.53;;;13.10;38.40;;;;;;5098790;28;20215;-80
2021/09/21 08:06:50;;;;;;;15.87;11.20;;;13.20;40.90;;;;;;5097403;28;20210;-77
2021/09/21 08:09:16;;;;;;;14.70;11.40;;;13.20;40.10;;;;;;5098328;28;20243;-78
2021/09/21 08:11:42;;;;;;;17.33;11.67;;;13.40;39.10;;;;;;5096787;28;20220;-80
2021/09/21 08:14:08;;;;;;;17.53;11.70;;;13.50;32.20;;;;;;5098492;28;20214;-78
2021/09/21 08:16:34;;;;;;;22.60;17.07;;;13.60;33.80;;;;;;5096458;28;20228;-78
2021/09/21 08:19:00;;;;;;;16.87;11.83;;;13.70;35.50;;;;;;5096347;28;20627;-77
2021/09/21 08:21:26;;;;;;;17.43;11.63;;;13.80;28.10;;;;;;5096421;28;20168;-77
2021/09/21 08:23:55;;;;;;;15.80;11.77;;;13.90;23.00;;;;;;5078189;28;20259;-78
2021/09/21 08:26:21;;;;;;;19.60;12.17;;;14.00;20.90;;;;;;5099697;28;20233;-79
2021/09/21 08:28:47;;;;;;;22.57;12.63;;;14.10;15.70;;;;;;5100001;28;20168;-77
2021/09/21 08:31:13;;;;;;;17.17;12.00;;;14.20;14.00;;;;;;5099627;28;20672;-78
2021/09/21 08:33:39;;;;;;;16.47;11.90;;;14.30;11.90;;;;;;5102863;28;20201;-80
2021/09/21 08:36:12;;;;;;;14.50;11.67;;;14.30;10.80;;;;;;5101935;28;20165;-78
2021/09/21 08:38:38;;;;;;;15.13;11.77;;;14.50;11.50;;;;;;5086024;28;20166;-78
2021/09/21 08:41:04;;;;;;;21.57;13.17;;;14.70;4.70;;;;;;5084421;28;20189;-80
2021/09/21 08:43:32;;;;;;;14.80;11.07;;;14.70;1.00;;;;;;5101248;28;20550;-79
2021/09/21 08:45:58;;;;;;;16.97;12.23;;;14.60;1.00;;;;;;5101475;28;20176;-77
2021/09/21 08:48:27;;;;;;;14.03;12.13;;;14.70;1.00;;;;;;5103672;28;20209;-78
2021/09/21 08:50:53;;;;;;;18.53;12.00;;;14.60;1.00;;;;;;5104181;28;20202;-80
2021/09/21 08:53:19;;;;;;;15.90;12.73;;;14.80;1.00;;;;;;5101854;28;20211;-78
2021/09/21 08:55:45;;;;;;;15.37;12.73;;;14.80;1.00;;;;;;5103278;28;20172;-76
2021/09/21 08:58:10;;;;;;;14.63;12.60;;;14.80;1.00;;;;;;5103566;28;20172;-77
2021/09/21 09:00:36;;;;;;;18.07;12.50;;;14.90;1.00;;;;;;5101876;28;20164;-77
2021/09/21 09:03:11;;;;;;;17.17;11.70;;;15.00;1.00;;;;;;5103109;28;20178;-77
2021/09/21 09:05:50;;;;;;;15.30;12.80;;;14.90;1.00;;;;;;5085083;28;20173;-79
2021/09/21 09:08:37;;;;;;;20.70;13.53;;;15.10;1.00;;;;;;5104765;28;20180;-77
2021/09/21 09:11:12;;;;;;;15.23;12.03;;;15.30;1.00;;;;;;5102028;28;20148;-76
2021/09/21 09:13:38;;;;;;;21.23;13.70;;;15.20;1.00;;;;;;5102636;28;20354;-77
2021/09/21 09:16:12;;;;;;;14.53;12.70;;;15.20;1.00;;;;;;5104379;28;20194;-79
2021/09/21 09:18:39;;;;;;;17.40;13.30;;;15.10;1.00;;;;;;5102659;28;20256;-79
2021/09/21 09:21:05;;;;;;;21.27;13.90;;;15.40;1.00;;;;;;5102950;28;20169;-78
2021/09/21 09:23:30;;;;;;;20.10;15.20;;;15.40;1.00;;;;;;5105210;28;20190;-78
2021/09/21 09:25:58;;;;;;;20.23;13.57;;;15.50;1.00;;;;;;5084150;28;20268;-78
2021/09/21 09:28:26;;;;;;;24.47;13.53;;;15.50;1.00;;;;;;5081762;28;20182;-78
2021/09/21 09:30:54;;;;;;;15.37;12.47;;;15.50;1.00;;;;;;5105942;28;20168;-79
2021/09/21 09:33:22;;;;;;;22.23;13.57;;;15.50;1.00;;;;;;5108355;28;20197;-78
2021/09/21 09:35:50;;;;;;;17.17;13.53;;;15.60;1.00;;;;;;5101316;28;20184;-79
2021/09/21 09:38:22;;;;;;;15.70;12.60;;;15.80;1.00;;;;;;5102227;28;20190;-79
2021/09/21 09:40:56;;;;;;;14.67;11.83;;;15.90;1.00;;;;;;5100015;28;20211;-79
2021/09/21 09:43:27;;;;;;;20.50;12.23;;;15.80;1.00;;;;;;5099163;28;20217;-76
2021/09/21 09:45:59;;;;;;;13.90;11.83;;;15.80;1.00;;;;;;5100268;28;20238;-76
2021/09/21 09:48:26;;;;;;;15.60;11.70;;;16.10;1.00;;;;;;5103456;28;20240;-78
2021/09/21 09:50:56;;;;;;;12.50;10.90;;;16.40;1.00;;;;;;5107444;28;20541;-79
2021/09/21 09:53:25;;;;;;;12.70;11.37;;;16.40;1.00;;;;;;5113892;28;20215;-79
2021/09/21 09:55:54;;;;;;;15.73;11.20;;;16.50;1.00;;;;;;5102226;28;20182;-78
2021/09/21 09:58:20;;;;;;;15.73;11.70;;;16.40;1.00;;;;;;5098642;28;20202;-79
2021/09/21 10:00:49;;;;;;;10.30;8.87;;;16.60;1.00;;;;;;5097257;28;20206;-80
2021/09/21 10:03:15;;;;;;;10.53;7.80;;;16.70;1.00;;;;;;5080072;28;20194;-77
2021/09/21 10:05:42;;;;;;;11.77;8.57;;;16.60;1.00;;;;;;5098943;28;20221;-80
2021/09/21 10:08:09;;;;;;;10.37;8.37;;;16.50;1.00;;;;;;5098266;28;20645;-81
2021/09/21 10:10:38;;;;;;;10.80;7.83;;;16.50;1.00;;;;;;5097750;28;20169;-78
2021/09/21 10:13:08;;;;;;;8.97;7.77;;;16.60;1.00;;;;;;5098266;28;20199;-77
2021/09/21 10:15:34;;;;;;;11.33;8.43;;;16.60;1.00;;;;;;5100416;28;20168;-79
2021/09/21 10:18:01;;;;;;;9.83;8.10;;;16.60;1.00;;;;;;5100660;28;20176;-76
2021/09/21 10:20:40;;;;;;;12.20;8.50;;;16.70;1.00;;;;;;5077923;28;20266;-76
2021/09/21 10:23:08;;;;;;;12.67;9.13;;;16.80;1.00;;;;;;5097009;28;20606;-78
2021/09/21 10:25:40;;;;;;;12.17;8.37;;;16.90;1.00;;;;;;5098249;28;20175;-80
2021/09/21 10:28:16;;;;;;;11.43;9.47;;;17.10;1.00;;;;;;5099100;28;20179;-78
2021/09/21 10:30:56;;;;;;;12.60;8.90;;;17.30;1.00;;;;;;5079758;28;20185;-80
2021/09/21 10:33:24;;;;;;;10.70;8.10;;;17.50;1.00;;;;;;5100172;28;20199;-78
2021/09/21 10:35:50;;;;;;;14.10;8.40;;;17.50;1.00;;;;;;5079845;28;20263;-76
2021/09/21 10:38:19;;;;;;;11.53;8.83;;;17.50;1.00;;;;;;5097527;28;20172;-77
2021/09/21 10:40:48;;;;;;;10.70;8.50;;;17.50;1.00;;;;;;5080493;28;20190;-78
2021/09/21 10:43:26;;;;;;;9.97;8.23;;;17.50;99.90;;;;;;5097283;28;20289;-79
2021/09/21 10:46:05;;;;;;;10.63;7.73;;;17.60;1.00;;;;;;5078846;28;20203;-79
2021/09/21 10:48:39;;;;;;;11.43;8.80;;;17.60;99.90;;;;;;5103084;28;20182;-79
2021/09/21 10:51:07;;;;;;;11.43;9.73;;;17.40;99.90;;;;;;5100338;28;20167;-77
2021/09/21 10:53:34;;;;;;;10.40;8.10;;;17.30;1.00;;;;;;5104384;28;20221;-79
2021/09/21 10:56:14;;;;;;;9.90;8.77;;;17.20;1.00;;;;;;5106268;28;20168;-80
2021/09/21 10:58:54;;;;;;;12.80;8.93;;;17.10;99.90;;;;;;5092256;28;20186;-79
2021/09/21 11:01:20;;;;;;;8.20;7.37;;;17.10;99.90;;;;;;5084836;28;20681;-78
2021/09/21 11:03:47;;;;;;;10.60;7.53;;;17.00;99.90;;;;;;5101563;28;20168;-77
2021/09/21 11:06:15;;;;;;;9.50;7.50;;;17.00;99.90;;;;;;5099487;28;20344;-78
2021/09/21 11:08:41;;;;;;;9.07;7.80;;;17.20;99.90;;;;;;5099223;28;20164;-79
2021/09/21 11:11:08;;;;;;;12.20;7.90;;;17.20;99.90;;;;;;5098305;28;20622;-79
2021/09/21 11:13:40;;;;;;;15.10;8.30;;;17.20;99.90;;;;;;5095989;28;20205;-80
2021/09/21 11:16:12;;;;;;;9.13;7.37;;;17.40;99.90;;;;;;5103336;28;20160;-78
2021/09/21 11:18:42;;;;;;;14.60;8.17;;;17.60;99.90;;;;;;5106652;28;20175;-79
2021/09/21 11:21:10;;;;;;;9.20;7.20;;;17.70;99.90;;;;;;5108248;28;20159;-78
2021/09/21 11:23:42;;;;;;;13.50;8.47;;;17.60;99.90;;;;;;5086876;28;20183;-78
2021/09/21 11:26:13;;;;;;;11.37;7.47;;;17.50;99.90;;;;;;5097933;28;20236;-79
2021/09/21 11:28:46;;;;;;;11.50;7.90;;;17.40;99.90;;;;;;5098815;28;20216;-78
2021/09/21 11:31:13;;;;;;;9.87;7.40;;;17.50;99.90;;;;;;5095221;28;20164;-79
2021/09/21 11:33:41;;;;;;;10.07;8.00;;;17.40;99.90;;;;;;5076785;28;20240;-78
2021/09/21 11:36:14;;;;;;;11.60;7.13;;;17.50;99.90;;;;;;5094865;28;20168;-78
2021/09/21 11:38:44;;;;;;;8.63;7.40;;;17.70;99.90;;;;;;5094274;28;20167;-79
2021/09/21 11:41:11;;;;;;;11.87;7.13;;;17.80;99.90;;;;;;5076205;28;20214;-79
2021/09/21 11:43:37;;;;;;;7.90;6.30;;;17.90;1.00;;;;;;5094328;28;20164;-79
2021/09/21 11:46:03;;;;;;;9.10;6.67;;;18.10;1.90;;;;;;5093787;28;20176;-78
2021/09/21 11:48:29;;;;;;;10.27;6.40;;;18.20;1.00;;;;;;5095684;28;20172;-77
2021/09/21 11:50:56;;;;;;;8.57;7.33;;;18.30;99.90;;;;;;5077047;28;20174;-80
2021/09/21 11:53:29;;;;;;;9.40;7.10;;;18.30;99.90;;;;;;5078292;28;20199;-79
2021/09/21 11:55:57;;;;;;;9.97;6.30;;;18.20;99.90;;;;;;5095835;28;20167;-77
2021/09/21 11:58:33;;;;;;;7.27;6.00;;;18.10;1.00;;;;;;5094293;28;20185;-76
2021/09/21 12:01:05;;;;;;;11.60;6.93;;;18.20;1.00;;;;;;5078895;28;20167;-78
2021/09/21 12:03:31;;;;;;;8.40;6.30;;;18.20;99.90;;;;;;5094677;28;20169;-79
2021/09/21 12:05:58;;;;;;;12.67;6.87;;;18.20;99.90;;;;;;5075709;28;20187;-77
2021/09/21 12:08:28;;;;;;;9.23;6.23;;;18.40;99.90;;;;;;5093848;28;20577;-77
2021/09/21 12:11:15;;;;;;;8.73;5.50;;;18.30;1.00;;;;;;5094619;28;20160;-79
2021/09/21 12:13:41;;;;;;;7.77;5.60;;;18.30;99.90;;;;;;5096558;28;20289;-77
2021/09/21 12:16:10;;;;;;;10.47;6.67;;;18.10;99.90;;;;;;5095094;28;20195;-78
2021/09/21 12:18:37;;;;;;;7.47;6.20;;;17.90;1.00;;;;;;5108247;28;20198;-77
2021/09/21 12:21:12;;;;;;;12.70;6.27;;;18.10;1.00;;;;;;5097980;28;20164;-80
2021/09/21 12:23:42;;;;;;;7.13;6.37;;;18.20;1.00;;;;;;5095145;28;20591;-79
2021/09/21 12:26:10;;;;;;;9.33;5.90;;;18.40;99.90;;;;;;5095127;28;20164;-78
2021/09/21 12:28:41;;;;;;;8.40;5.70;;;18.40;1.00;;;;;;5095988;28;20179;-78
2021/09/21 12:31:23;;;;;;;8.10;6.23;;;18.50;1.00;;;;;;5095145;28;20287;-78
2021/09/21 12:33:51;;;;;;;5.37;4.50;;;18.40;99.90;;;;;;5094338;28;20239;-78
2021/09/21 12:36:31;;;;;;;7.50;5.33;;;18.40;1.00;;;;;;5109693;28;20188;-78
2021/09/21 12:39:08;;;;;;;8.97;5.07;;;18.50;1.00;;;;;;5097438;28;20254;-78
2021/09/21 12:41:42;;;;;;;6.50;4.93;;;18.80;1.00;;;;;;5094427;28;20167;-78
2021/09/21 12:44:12;;;;;;;7.40;4.60;;;18.80;1.00;;;;;;5093526;28;20221;-77
2021/09/21 12:46:46;;;;;;;13.60;6.20;;;18.90;1.00;;;;;;5075178;28;20549;-79
2021/09/21 12:49:15;;;;;;;7.10;5.67;;;19.00;99.90;;;;;;5093667;28;20664;-79
2021/09/21 12:51:46;;;;;;;7.10;4.63;;;19.00;99.90;;;;;;5093208;28;20164;-78
2021/09/21 12:54:15;;;;;;;9.60;5.23;;;18.80;99.90;;;;;;5093162;28;20213;-81
2021/09/21 12:56:43;;;;;;;5.80;4.30;;;18.80;99.90;;;;;;5075007;28;20167;-78
2021/09/21 12:59:15;;;;;;;4.87;4.07;;;18.80;99.90;;;;;;5093656;28;20171;-77
2021/09/21 13:01:44;;;;;;;7.30;4.80;;;18.80;99.90;;;;;;5093321;28;20632;-80
2021/09/21 13:04:10;;;;;;;9.00;4.53;;;18.90;1.00;;;;;;5093660;28;20187;-79